createdAt,value
2023-01-02T00:01:33.992Z,64.00
2023-01-02T00:04:00.737Z,64.01
2023-01-02T00:06:27.488Z,64.14
2023-01-02T00:08:54.123Z,64.02
2023-01-02T00:11:20.795Z,63.69
2023-01-02T00:13:47.410Z,64.23
2023-01-02T00:16:14.101Z,64.53
2023-01-02T00:18:40.779Z,64.52
2023-01-02T00:21:07.824Z,64.60
2023-01-02T00:23:35.583Z,64.40
2023-01-02T00:26:02.458Z,64.26
2023-01-02T00:28:29.585Z,64.46
2023-01-02T00:30:56.350Z,64.49
2023-01-02T00:33:23.130Z,66.43
2023-01-02T00:35:49.736Z,65.87
2023-01-02T00:38:18.265Z,65.07
2023-01-02T00:40:44.964Z,65.06
2023-01-02T00:43:11.547Z,64.52
2023-01-02T00:45:38.214Z,64.42
2023-01-02T00:48:04.876Z,64.25
2023-01-02T00:50:31.510Z,64.20
2023-01-02T00:52:58.151Z,63.94
2023-01-02T00:55:24.689Z,64.54
2023-01-02T00:57:51.325Z,64.37
2023-01-02T01:00:23.663Z,64.44
2023-01-02T01:02:54.516Z,64.35
2023-01-02T01:05:21.151Z,64.40
2023-01-02T01:07:47.744Z,64.21
2023-01-02T01:10:14.406Z,64.42
2023-01-02T01:12:41.028Z,64.14
2023-01-02T01:15:09.153Z,64.11
2023-01-02T01:17:35.774Z,64.84
2023-01-02T01:20:02.600Z,65.04
2023-01-02T01:22:29.296Z,64.96
2023-01-02T01:24:56.116Z,64.84
2023-01-02T01:27:22.843Z,64.62
2023-01-02T01:29:49.508Z,64.36
2023-01-02T01:32:16.139Z,64.29
2023-01-02T01:34:43.551Z,64.24
2023-01-02T01:37:10.294Z,64.48
2023-01-02T01:39:36.886Z,64.76
2023-01-02T01:42:03.619Z,64.23
2023-01-02T01:44:47.286Z,63.60
2023-01-02T01:47:33.170Z,63.73
2023-01-02T01:50:15.006Z,63.83
2023-01-02T01:52:47.838Z,63.78
2023-01-02T01:55:24.151Z,63.68
2023-01-02T01:57:58.747Z,63.70
2023-01-02T02:00:25.560Z,64.16
2023-01-02T02:02:57.486Z,63.64
2023-01-02T02:05:33.782Z,63.44
2023-01-02T02:08:18.107Z,63.66
2023-01-02T02:10:45.262Z,63.72
2023-01-02T02:13:12.247Z,63.90
2023-01-02T02:16:00.905Z,63.56
2023-01-02T02:18:59.081Z,63.35
2023-01-02T02:21:34.461Z,63.69
2023-01-02T02:24:12.844Z,64.14
2023-01-02T02:27:07.454Z,63.96
2023-01-02T02:29:58.762Z,63.72
2023-01-02T02:32:46.696Z,63.68
2023-01-02T02:35:32.288Z,63.42
2023-01-02T02:38:35.690Z,63.14
2023-01-02T02:41:33.276Z,63.49
2023-01-02T02:44:23.462Z,63.79
2023-01-02T02:47:16.299Z,63.60
2023-01-02T02:50:03.405Z,63.75
2023-01-02T02:52:36.123Z,63.48
2023-01-02T02:55:08.628Z,63.94
2023-01-02T02:57:48.088Z,64.03
2023-01-02T03:00:21.270Z,64.54
2023-01-02T03:02:48.121Z,65.07
2023-01-02T03:05:25.621Z,64.24
2023-01-02T03:08:15.258Z,64.70
2023-01-02T03:10:44.836Z,64.59
2023-01-02T03:13:40.925Z,64.65
2023-01-02T03:16:27.658Z,64.66
2023-01-02T03:19:06.852Z,64.22
2023-01-02T03:21:41.832Z,64.44
2023-01-02T03:24:15.060Z,64.29
2023-01-02T03:26:58.415Z,64.63
2023-01-02T03:29:39.190Z,64.37
2023-01-02T03:32:23.003Z,64.32
2023-01-02T03:34:51.581Z,64.26
2023-01-02T03:37:31.310Z,63.94
2023-01-02T03:40:02.025Z,64.29
2023-01-02T03:42:34.497Z,64.40
2023-01-02T03:45:08.109Z,64.59
2023-01-02T03:48:23.696Z,64.67
2023-01-02T03:50:56.560Z,64.54
2023-01-02T03:53:24.228Z,64.05
2023-01-02T03:56:09.236Z,64.35
2023-01-02T03:58:46.452Z,64.08
2023-01-02T04:01:22.997Z,64.36
2023-01-02T04:03:59.544Z,64.54
2023-01-02T04:06:34.133Z,64.50
2023-01-02T04:09:07.789Z,63.91
2023-01-02T04:11:37.454Z,64.51
2023-01-02T04:14:12.353Z,64.89
2023-01-02T04:16:42.220Z,64.54
2023-01-02T04:19:46.881Z,64.48
2023-01-02T04:22:21.345Z,64.50
2023-01-02T04:24:53.937Z,64.16
2023-01-02T04:27:25.611Z,63.80
2023-01-02T04:29:52.447Z,64.17
2023-01-02T04:32:32.111Z,64.16
2023-01-02T04:35:02.079Z,63.94
2023-01-02T04:37:34.959Z,64.43
2023-01-02T04:40:13.664Z,64.44
2023-01-02T04:42:40.454Z,64.32
2023-01-02T04:45:07.674Z,63.99
2023-01-02T04:47:34.304Z,64.15
2023-01-02T04:50:00.961Z,64.32
2023-01-02T04:52:32.052Z,63.93
2023-01-02T04:55:01.947Z,64.24
2023-01-02T04:57:28.746Z,64.37
2023-01-02T04:59:55.361Z,64.23
2023-01-02T05:02:22.116Z,64.61
2023-01-02T05:04:48.699Z,64.82
2023-01-02T05:07:15.317Z,65.32
2023-01-02T05:09:42.004Z,64.74
2023-01-02T05:12:08.653Z,64.91
2023-01-02T05:14:35.282Z,65.27
2023-01-02T05:17:02.036Z,65.79
2023-01-02T05:19:28.671Z,65.03
2023-01-02T05:22:13.555Z,64.94
2023-01-02T05:24:40.133Z,64.74
2023-01-02T05:27:06.761Z,64.75
2023-01-02T05:29:36.451Z,64.64
2023-01-02T05:32:03.100Z,64.22
2023-01-02T05:34:29.782Z,64.18
2023-01-02T05:36:56.356Z,65.58
2023-01-02T05:39:23.057Z,65.12
2023-01-02T05:41:49.628Z,65.01
2023-01-02T05:44:16.223Z,64.84
2023-01-02T05:46:43.056Z,64.49
2023-01-02T05:49:11.041Z,64.54
2023-01-02T05:51:37.736Z,65.17
2023-01-02T05:54:04.889Z,64.83
2023-01-02T05:56:31.672Z,65.24
2023-01-02T05:58:58.658Z,64.91
2023-01-02T06:01:29.257Z,64.91
2023-01-02T06:03:57.973Z,65.31
2023-01-02T06:06:29.860Z,64.81
2023-01-02T06:08:57.893Z,65.68
2023-01-02T06:11:24.538Z,66.25
2023-01-02T06:13:51.148Z,65.26
2023-01-02T06:16:17.826Z,65.06
2023-01-02T06:18:44.501Z,65.16
2023-01-02T06:21:14.301Z,65.04
2023-01-02T06:23:46.119Z,65.19
2023-01-02T06:26:20.530Z,64.91
2023-01-02T06:28:51.068Z,64.86
2023-01-02T06:31:19.581Z,65.88
2023-01-02T06:33:46.332Z,65.78
2023-01-02T06:36:15.491Z,66.73
2023-01-02T06:38:42.408Z,66.35
2023-01-02T06:41:09.895Z,65.58
2023-01-02T06:43:41.940Z,65.61
2023-01-02T06:46:08.592Z,65.49
2023-01-02T06:48:35.275Z,65.21
2023-01-02T06:51:06.971Z,65.28
2023-01-02T06:53:37.325Z,65.14
2023-01-02T06:56:04.759Z,65.04
2023-01-02T06:58:32.864Z,65.35
2023-01-02T07:01:20.412Z,64.89
2023-01-02T07:03:47.215Z,65.10
2023-01-02T07:06:20.431Z,64.86
2023-01-02T07:08:48.717Z,64.86
2023-01-02T07:11:23.348Z,65.29
2023-01-02T07:13:52.758Z,65.66
2023-01-02T07:16:21.536Z,66.28
2023-01-02T07:18:48.606Z,66.12
2023-01-02T07:21:18.036Z,67.03
2023-01-02T07:23:44.777Z,67.15
2023-01-02T07:26:11.854Z,66.39
2023-01-02T07:28:38.938Z,66.42
2023-01-02T07:31:08.923Z,66.14
2023-01-02T07:33:35.910Z,66.21
2023-01-02T07:36:05.857Z,65.66
2023-01-02T07:38:32.634Z,65.76
2023-01-02T07:40:59.295Z,66.13
2023-01-02T07:43:26.345Z,66.00
2023-01-02T07:45:53.113Z,66.58
2023-01-02T07:48:19.892Z,66.74
2023-01-02T07:50:47.169Z,66.95
2023-01-02T07:53:13.925Z,67.04
2023-01-02T07:55:40.732Z,66.69
2023-01-02T07:58:07.386Z,65.96
2023-01-02T08:00:34.105Z,65.80
2023-01-02T08:03:01.012Z,65.61
2023-01-02T08:05:27.683Z,65.82
2023-01-02T08:07:54.299Z,65.87
2023-01-02T08:10:20.894Z,65.54
2023-01-02T08:12:47.539Z,65.34
2023-01-02T08:15:14.176Z,65.01
2023-01-02T08:17:41.675Z,65.36
2023-01-02T08:20:09.429Z,65.32
2023-01-02T08:22:36.364Z,65.91
2023-01-02T08:25:03.925Z,66.33
2023-01-02T08:27:30.545Z,66.19
2023-01-02T08:29:57.149Z,65.70
2023-01-02T08:32:23.821Z,65.40
2023-01-02T08:34:50.500Z,65.84
2023-01-02T08:37:17.206Z,65.52
2023-01-02T08:42:26.708Z,65.18
2023-01-02T08:44:53.850Z,65.60
2023-01-02T08:47:20.468Z,65.33
2023-01-02T08:49:47.143Z,65.01
2023-01-02T08:52:13.834Z,65.04
2023-01-02T08:54:40.425Z,65.15
2023-01-02T08:57:07.072Z,64.92
2023-01-02T08:59:33.675Z,65.03
2023-01-02T09:02:00.432Z,64.99
2023-01-02T09:04:27.241Z,64.91
2023-01-02T09:06:53.832Z,64.35
2023-01-02T09:09:20.409Z,64.50
2023-01-02T09:11:52.193Z,63.75
2023-01-02T09:14:20.989Z,64.21
2023-01-02T09:16:48.149Z,64.17
2023-01-02T09:19:14.825Z,63.87
2023-01-02T09:21:41.762Z,63.51
2023-01-02T09:24:09.133Z,63.58
2023-01-02T09:26:38.057Z,64.43
2023-01-02T09:29:05.364Z,64.42
2023-01-02T09:31:32.269Z,63.35
2023-01-02T09:33:59.126Z,64.38
2023-01-02T09:36:25.883Z,64.38
2023-01-02T09:38:57.632Z,64.25
2023-01-02T09:41:37.020Z,63.30
2023-01-02T09:44:06.733Z,62.91
2023-01-02T09:46:42.964Z,63.00
2023-01-02T09:49:15.628Z,63.18
2023-01-02T09:51:43.742Z,62.01
2023-01-02T09:54:27.002Z,61.58
2023-01-02T09:57:16.741Z,60.89
2023-01-02T10:00:11.046Z,60.83
2023-01-02T10:03:08.344Z,62.48
2023-01-02T10:05:41.172Z,61.21
2023-01-02T10:08:45.155Z,60.83
2023-01-02T10:11:40.744Z,59.81
2023-01-02T10:14:43.943Z,59.91
2023-01-02T10:17:15.626Z,59.73
2023-01-02T10:20:02.075Z,59.89
2023-01-02T10:22:43.019Z,61.14
2023-01-02T10:25:32.713Z,60.06
2023-01-02T10:28:36.580Z,59.06
2023-01-02T10:31:09.709Z,58.86
2023-01-02T10:33:44.985Z,58.53
2023-01-02T10:36:23.431Z,58.31
2023-01-02T10:38:50.969Z,59.33
2023-01-02T10:41:18.111Z,58.50
2023-01-02T10:43:49.640Z,58.34
2023-01-02T10:46:16.231Z,58.22
2023-01-02T10:48:46.986Z,57.56
2023-01-02T10:51:19.247Z,57.57
2023-01-02T10:54:00.236Z,57.49
2023-01-02T10:56:30.113Z,57.64
2023-01-02T10:58:56.795Z,57.53
2023-01-02T11:01:28.622Z,57.55
2023-01-02T11:03:58.341Z,57.22
2023-01-02T11:06:38.814Z,56.79
2023-01-02T11:09:28.192Z,57.06
2023-01-02T11:11:58.334Z,58.38
2023-01-02T11:14:33.261Z,58.04
2023-01-02T11:17:15.152Z,56.89
2023-01-02T11:19:44.885Z,57.25
2023-01-02T11:22:14.017Z,56.64
2023-01-02T11:25:00.033Z,56.10
2023-01-02T11:27:36.804Z,55.68
2023-01-02T11:30:07.466Z,56.16
2023-01-02T11:32:40.238Z,55.68
2023-01-02T11:35:33.820Z,55.34
2023-01-02T11:38:01.709Z,55.50
2023-01-02T11:40:31.282Z,55.89
2023-01-02T11:43:44.377Z,56.93
2023-01-02T11:46:27.511Z,56.04
2023-01-02T11:48:59.966Z,55.98
2023-01-02T11:51:28.332Z,55.31
2023-01-02T11:53:57.131Z,55.27
2023-01-02T11:56:36.452Z,55.38
2023-01-02T11:59:14.784Z,55.42
2023-01-02T12:01:43.103Z,55.08
2023-01-02T12:04:10.810Z,55.19
2023-01-02T12:06:52.592Z,55.00
2023-01-02T12:09:45.828Z,55.04
2023-01-02T12:12:34.926Z,54.87
2023-01-02T12:15:07.561Z,54.88
2023-01-02T12:17:43.406Z,55.08
2023-01-02T12:20:45.433Z,54.97
2023-01-02T12:23:28.855Z,54.89
2023-01-02T12:26:08.816Z,54.78
2023-01-02T12:28:45.248Z,54.81
2023-01-02T12:31:30.954Z,54.87
2023-01-02T12:34:48.954Z,55.13
2023-01-02T12:37:36.789Z,55.33
2023-01-02T12:40:08.782Z,55.38
2023-01-02T12:42:53.633Z,55.24
2023-01-02T12:46:13.550Z,55.66
2023-01-02T12:48:46.248Z,55.44
2023-01-02T12:51:33.580Z,56.20
2023-01-02T12:54:21.343Z,55.50
2023-01-02T12:56:56.932Z,55.28
2023-01-02T12:59:42.986Z,55.29
2023-01-02T13:02:21.488Z,55.27
2023-01-02T13:05:27.089Z,54.79
2023-01-02T13:08:00.456Z,54.94
2023-01-02T13:10:29.316Z,55.01
2023-01-02T13:13:01.938Z,55.41
2023-01-02T13:15:34.720Z,54.84
2023-01-02T13:18:10.690Z,54.59
2023-01-02T13:20:43.309Z,54.48
2023-01-02T13:23:19.032Z,54.70
2023-01-02T13:25:49.555Z,54.66
2023-01-02T13:28:17.441Z,54.85
2023-01-02T13:31:11.149Z,54.67
2023-01-02T13:33:45.772Z,54.88
2023-01-02T13:36:37.254Z,55.70
2023-01-02T13:39:24.145Z,55.92
2023-01-02T13:42:13.678Z,56.37
2023-01-02T13:45:00.775Z,56.50
2023-01-02T13:47:35.101Z,56.68
2023-01-02T13:50:20.065Z,56.76
2023-01-02T13:53:06.688Z,56.91
2023-01-02T13:55:57.432Z,57.14
2023-01-02T13:58:43.665Z,57.44
2023-01-02T14:01:25.331Z,57.52
2023-01-02T14:04:07.272Z,57.78
2023-01-02T14:06:47.228Z,57.79
2023-01-02T14:09:18.067Z,58.19
2023-01-02T14:11:56.975Z,57.92
2023-01-02T14:14:26.993Z,58.34
2023-01-02T14:17:19.901Z,58.51
2023-01-02T14:20:06.632Z,58.59
2023-01-02T14:22:50.716Z,58.54
2023-01-02T14:25:18.273Z,58.72
2023-01-02T14:28:00.524Z,58.91
2023-01-02T14:30:54.446Z,59.44
2023-01-02T14:33:34.332Z,59.54
2023-01-02T14:36:10.110Z,59.48
2023-01-02T14:38:54.108Z,59.71
2023-01-02T14:42:10.004Z,59.79
2023-01-02T14:44:46.688Z,60.01
2023-01-02T14:47:19.532Z,60.18
2023-01-02T14:49:55.101Z,59.74
2023-01-02T14:52:37.596Z,60.31
2023-01-02T14:55:20.384Z,60.46
2023-01-02T14:58:05.507Z,60.49
2023-01-02T15:00:37.632Z,60.95
2023-01-02T15:03:27.397Z,61.15
2023-01-02T15:06:02.353Z,61.20
2023-01-02T15:08:39.835Z,61.13
2023-01-02T15:11:41.970Z,61.23
2023-01-02T15:14:23.613Z,61.71
2023-01-02T15:17:00.183Z,61.46
2023-01-02T15:19:30.314Z,61.49
2023-01-02T15:21:56.984Z,61.64
2023-01-02T15:24:27.158Z,61.53
2023-01-02T15:26:54.231Z,61.91
2023-01-02T15:29:25.128Z,61.93
2023-01-02T15:32:02.126Z,62.04
2023-01-02T15:34:31.208Z,62.07
2023-01-02T15:37:09.382Z,62.01
2023-01-02T15:39:40.117Z,61.91
2023-01-02T15:42:29.531Z,62.15
2023-01-02T15:45:15.046Z,62.11
2023-01-02T15:47:46.877Z,62.30
2023-01-02T15:50:25.548Z,62.13
2023-01-02T15:53:08.672Z,61.97
2023-01-02T15:55:39.173Z,62.12
2023-01-02T15:58:14.764Z,61.74
2023-01-02T16:00:42.618Z,61.90
2023-01-02T16:03:16.228Z,62.06
2023-01-02T16:05:54.582Z,61.98
2023-01-02T16:08:24.239Z,61.86
2023-01-02T16:11:03.315Z,62.00
2023-01-02T16:13:55.410Z,61.81
2023-01-02T16:16:22.862Z,62.17
2023-01-02T16:18:54.147Z,61.77
2023-01-02T16:21:21.855Z,61.88
2023-01-02T16:23:52.525Z,61.75
2023-01-02T16:26:28.531Z,61.71
2023-01-02T16:28:55.900Z,62.00
2023-01-02T16:31:23.963Z,61.66
2023-01-02T16:33:50.791Z,61.91
2023-01-02T16:36:17.579Z,61.91
2023-01-02T16:38:50.415Z,61.54
2023-01-02T16:41:38.323Z,61.65
2023-01-02T16:44:12.537Z,61.50
2023-01-02T16:46:40.009Z,61.97
2023-01-02T16:49:07.582Z,61.79
2023-01-02T16:51:34.435Z,62.07
2023-01-02T16:54:01.107Z,62.34
2023-01-02T16:56:27.888Z,62.11
2023-01-02T16:58:54.469Z,62.28
2023-01-02T17:01:23.762Z,62.30
2023-01-02T17:03:50.590Z,62.45
2023-01-02T17:06:19.112Z,62.15
2023-01-02T17:08:45.810Z,62.12
2023-01-02T17:11:18.679Z,61.92
2023-01-02T17:13:45.560Z,62.13
2023-01-02T17:16:12.527Z,62.27
2023-01-02T17:18:39.415Z,62.36
2023-01-02T17:21:06.869Z,62.51
2023-01-02T17:23:33.834Z,62.35
2023-01-02T17:26:03.489Z,62.32
2023-01-02T17:28:30.588Z,62.30
2023-01-02T17:30:57.466Z,62.39
2023-01-02T17:33:24.161Z,62.38
2023-01-02T17:35:51.195Z,62.85
2023-01-02T17:38:17.873Z,63.05
2023-01-02T17:40:44.724Z,62.81
2023-01-02T17:43:12.177Z,62.85
2023-01-02T17:45:41.549Z,62.75
2023-01-02T17:48:12.660Z,62.79
2023-01-02T17:50:42.002Z,63.05
2023-01-02T17:53:08.819Z,63.23
2023-01-02T17:55:35.524Z,63.29
2023-01-02T17:58:03.491Z,63.01
2023-01-02T18:00:30.239Z,62.92
2023-01-02T18:02:57.204Z,62.89
2023-01-02T18:05:23.920Z,62.86
2023-01-02T18:07:50.594Z,62.90
2023-01-02T18:10:21.392Z,62.75
2023-01-02T18:12:51.713Z,63.05
2023-01-02T18:15:21.195Z,63.13
2023-01-02T18:18:04.035Z,62.99
2023-01-02T18:20:34.093Z,63.18
2023-01-02T18:23:14.718Z,63.42
2023-01-02T18:25:41.802Z,63.36
2023-01-02T18:28:25.079Z,62.91
2023-01-02T18:30:59.865Z,62.96
2023-01-02T18:33:31.181Z,62.90
2023-01-02T18:36:02.306Z,62.99
2023-01-02T18:38:35.679Z,63.00
2023-01-02T18:41:21.474Z,62.91
2023-01-02T18:43:55.907Z,63.07
2023-01-02T18:47:02.064Z,62.61
2023-01-02T18:49:26.843Z,62.68
2023-01-02T18:52:27.618Z,62.71
2023-01-02T18:55:14.460Z,62.96
2023-01-02T18:57:47.092Z,62.95
2023-01-02T19:00:22.016Z,62.67
2023-01-02T19:02:54.037Z,62.89
2023-01-02T19:05:46.477Z,62.78
2023-01-02T19:08:22.929Z,63.02
2023-01-02T19:10:57.619Z,63.29
2023-01-02T19:13:46.609Z,63.30
2023-01-02T19:16:17.928Z,63.16
2023-01-02T19:18:48.988Z,63.18
2023-01-02T19:21:25.003Z,63.05
2023-01-02T19:24:22.761Z,63.20
2023-01-02T19:27:13.488Z,63.33
2023-01-02T19:29:43.578Z,62.95
2023-01-02T19:32:27.096Z,62.72
2023-01-02T19:35:26.267Z,62.71
2023-01-02T19:37:52.966Z,62.98
2023-01-02T19:40:22.584Z,62.73
2023-01-02T19:42:50.819Z,63.02
2023-01-02T19:45:22.785Z,62.86
2023-01-02T19:47:50.404Z,63.01
2023-01-02T19:50:20.231Z,62.77
2023-01-02T19:52:47.525Z,62.77
2023-01-02T19:55:14.916Z,62.62
2023-01-02T19:57:41.729Z,62.74
2023-01-02T20:00:12.840Z,62.96
2023-01-02T20:02:43.310Z,63.11
2023-01-02T20:05:12.730Z,63.22
2023-01-02T20:07:43.491Z,63.51
2023-01-02T20:10:11.115Z,63.36
2023-01-02T20:12:41.542Z,63.19
2023-01-02T20:15:17.455Z,62.81
2023-01-02T20:17:45.401Z,63.16
2023-01-02T20:20:15.707Z,63.42
2023-01-02T20:22:43.658Z,63.27
2023-01-02T20:25:14.671Z,63.52
2023-01-02T20:27:41.718Z,63.45
2023-01-02T20:30:10.071Z,63.27
2023-01-02T20:32:36.950Z,63.12
2023-01-02T20:35:04.475Z,63.33
2023-01-02T20:37:31.193Z,63.27
2023-01-02T20:39:58.268Z,63.33
2023-01-02T20:42:24.940Z,63.35
2023-01-02T20:44:51.773Z,63.44
2023-01-02T20:47:18.543Z,63.46
2023-01-02T20:49:45.333Z,63.19
2023-01-02T20:52:12.714Z,63.17
2023-01-02T20:54:40.214Z,63.38
2023-01-02T20:57:11.917Z,63.29
2023-01-02T20:59:38.543Z,63.09
2023-01-02T21:02:05.707Z,63.12
2023-01-02T21:04:36.855Z,63.18
2023-01-02T21:07:05.190Z,63.57
2023-01-02T21:09:31.897Z,63.50
2023-01-02T21:11:58.576Z,63.53
2023-01-02T21:14:25.217Z,63.40
2023-01-02T21:16:51.880Z,63.39
2023-01-02T21:19:18.512Z,63.28
2023-01-02T21:21:45.111Z,63.18
2023-01-02T21:24:11.824Z,63.36
2023-01-02T21:26:38.468Z,63.18
2023-01-02T21:29:05.121Z,63.38
2023-01-02T21:31:31.879Z,63.62
2023-01-02T21:33:58.541Z,63.55
2023-01-02T21:36:25.404Z,63.30
2023-01-02T21:38:52.237Z,63.73
2023-01-02T21:41:37.142Z,63.52
2023-01-02T21:44:03.797Z,63.21
2023-01-02T21:46:30.452Z,63.46
2023-01-02T21:48:57.122Z,63.19
2023-01-02T21:51:27.624Z,62.97
2023-01-02T21:53:55.742Z,63.16
2023-01-02T21:56:26.044Z,63.80
2023-01-02T21:58:55.878Z,63.38
2023-01-02T22:01:22.615Z,63.11
2023-01-02T22:03:49.489Z,63.62
2023-01-02T22:06:16.785Z,63.72
2023-01-02T22:08:43.479Z,63.31
2023-01-02T22:11:28.958Z,63.50
2023-01-02T22:13:55.634Z,64.00
2023-01-02T22:16:22.264Z,63.66
2023-01-02T22:18:50.743Z,63.29
2023-01-02T22:21:17.362Z,63.53
2023-01-02T22:23:43.969Z,63.51
2023-01-02T22:26:10.853Z,63.56
2023-01-02T22:28:37.775Z,63.66
2023-01-02T22:31:05.039Z,63.61
2023-01-02T22:33:31.739Z,63.70
2023-01-02T22:35:58.346Z,63.37
2023-01-02T22:38:24.969Z,63.66
2023-01-02T22:40:51.629Z,63.32
2023-01-02T22:43:24.443Z,63.75
2023-01-02T22:45:53.417Z,63.91
2023-01-02T22:48:32.461Z,63.23
2023-01-02T22:51:03.779Z,63.55
2023-01-02T22:53:32.800Z,63.45
2023-01-02T22:56:01.256Z,63.65
2023-01-02T22:58:28.250Z,63.86
2023-01-02T23:01:02.867Z,63.52
2023-01-02T23:03:33.250Z,63.75
2023-01-02T23:05:59.927Z,63.92
2023-01-02T23:08:26.622Z,63.69
2023-01-02T23:10:53.289Z,63.50
2023-01-02T23:13:19.961Z,64.00
2023-01-02T23:16:05.392Z,63.82
2023-01-02T23:18:56.618Z,64.24
2023-01-02T23:21:25.501Z,64.21
2023-01-02T23:23:52.577Z,64.11
2023-01-02T23:26:19.902Z,64.04
2023-01-02T23:31:35.086Z,64.15
2023-01-02T23:34:03.312Z,63.81
2023-01-02T23:36:30.208Z,63.91
2023-01-02T23:38:57.201Z,63.51
2023-01-02T23:41:23.865Z,64.08
2023-01-02T23:43:51.575Z,63.93
2023-01-02T23:46:18.938Z,63.63
2023-01-02T23:48:45.631Z,63.63
2023-01-02T23:51:12.392Z,63.89
2023-01-02T23:53:39.093Z,63.71
2023-01-02T23:56:19.744Z,63.67
2023-01-02T23:58:47.863Z,64.17
